Time;durP1;ratioP1;P1;durP2;ratioP2;P2;SDS_P1;SDS_P2;PMS_P1;PMS_P2;Temp;Humidity;BMP_temperature;BMP_pressure;BME280_temperature;BME280_humidity;BME280_pressure;Samples;Min_cycle;Max_cycle;Signal;HPM_P1;HPM_P2
2021/12/09 00:00:30;;;;;;;20.63;8.73;;;;;;;;;;5093223;28;20498;-79
2021/12/09 00:02:57;;;;;;;23.77;9.07;;;;;;;;;;5109726;28;20048;-79
2021/12/09 00:05:23;;;;;;;24.63;8.93;;;;;;;;;;5092682;28;20040;-80
2021/12/09 00:07:52;;;;;;;19.92;8.80;;;;;;;;;;5109209;28;20093;-80
2021/12/09 00:10:18;;;;;;;21.25;8.52;;;;;;;;;;5109670;28;20088;-79
2021/12/09 00:12:44;;;;;;;18.40;9.02;;;;;;;;;;5109433;28;20035;-79
2021/12/09 00:15:11;;;;;;;18.77;9.07;;;;;;;;;;5092628;28;20046;-80
2021/12/09 00:17:37;;;;;;;20.40;8.82;;;;;;;;;;5109785;28;20043;-80
2021/12/09 00:20:04;;;;;;;17.67;9.30;;;;;;;;;;5109012;28;20058;-79
2021/12/09 00:22:30;;;;;;;19.00;8.68;;;;;;;;;;5109783;28;20055;-77
2021/12/09 00:24:56;;;;;;;18.75;9.27;;;;;;;;;;5109125;28;20043;-77
2021/12/09 00:27:22;;;;;;;24.02;11.00;;;;;;;;;;5110301;28;20564;-77
2021/12/09 00:29:48;;;;;;;18.00;9.25;;;;;;;;;;5091718;28;20040;-79
2021/12/09 00:32:14;;;;;;;19.17;9.35;;;;;;;;;;5092649;28;20046;-79
2021/12/09 00:34:44;;;;;;;20.33;9.70;;;;;;;;;;5092824;28;20571;-79
2021/12/09 00:40:07;;;;;;;22.30;10.13;;;;;;;;;;5091362;28;20043;-77
2021/12/09 00:42:33;;;;;;;22.33;11.10;;;;;;;;;;5109569;28;20546;-77
2021/12/09 00:45:00;;;;;;;19.38;10.35;;;;;;;;;;5108883;28;20046;-77
2021/12/09 00:47:26;;;;;;;24.13;10.50;;;;;;;;;;5092549;28;20043;-77
2021/12/09 00:49:55;;;;;;;21.70;10.60;;;;;;;;;;5108199;28;20449;-75
2021/12/09 00:52:24;;;;;;;25.00;10.93;;;;;;;;;;5092163;28;20042;-77
2021/12/09 00:54:51;;;;;;;18.15;9.80;;;;;;;;;;5108648;28;20039;-76
2021/12/09 00:57:18;;;;;;;28.00;11.43;;;;;;;;;;5092010;28;20043;-77
2021/12/09 00:59:44;;;;;;;19.35;10.43;;;;;;;;;;5108636;28;20108;-77
2021/12/09 01:02:11;;;;;;;19.70;11.27;;;;;;;;;;5108881;28;20043;-77
2021/12/09 01:04:40;;;;;;;26.05;11.35;;;;;;;;;;5108915;28;20559;-77
2021/12/09 01:07:07;;;;;;;20.67;10.25;;;;;;;;;;5108640;28;20076;-77
2021/12/09 01:09:33;;;;;;;22.85;11.95;;;;;;;;;;5108635;28;20040;-77
2021/12/09 01:11:59;;;;;;;23.95;10.82;;;;;;;;;;5091539;28;20371;-77
2021/12/09 01:14:25;;;;;;;20.50;10.30;;;;;;;;;;5108723;28;20074;-75
2021/12/09 01:16:51;;;;;;;25.77;12.10;;;;;;;;;;5108127;28;20043;-77
2021/12/09 01:19:17;;;;;;;21.30;11.90;;;;;;;;;;5108919;28;20495;-77
2021/12/09 01:21:44;;;;;;;25.42;11.90;;;;;;;;;;5108195;28;20051;-77
2021/12/09 01:24:10;;;;;;;26.77;12.15;;;;;;;;;;5108641;28;20573;-76
2021/12/09 01:26:36;;;;;;;25.55;11.90;;;;;;;;;;5091448;28;20070;-77
2021/12/09 01:29:11;;;;;;;25.88;12.82;;;;;;;;;;5108131;28;20133;-77
2021/12/09 01:31:39;;;;;;;21.90;10.27;;;;;;;;;;5087993;28;20111;-77
2021/12/09 01:34:05;;;;;;;22.92;12.52;;;;;;;;;;5087880;28;20290;-77
2021/12/09 01:36:34;;;;;;;27.50;13.45;;;;;;;;;;5076997;28;20058;-77
2021/12/09 01:39:01;;;;;;;23.75;13.15;;;;;;;;;;5089158;28;20404;-77
2021/12/09 01:41:28;;;;;;;27.48;13.00;;;;;;;;;;5071688;28;20052;-77
2021/12/09 01:43:54;;;;;;;26.13;12.68;;;;;;;;;;5087436;28;20089;-77
2021/12/09 01:46:21;;;;;;;26.80;14.23;;;;;;;;;;5087781;28;20051;-77
2021/12/09 01:48:48;;;;;;;29.63;13.23;;;;;;;;;;5071073;28;20117;-77
2021/12/09 01:51:15;;;;;;;27.55;14.07;;;;;;;;;;5087514;28;20054;-77
2021/12/09 01:53:41;;;;;;;25.67;13.68;;;;;;;;;;5088178;28;20124;-77
2021/12/09 01:56:09;;;;;;;26.23;14.20;;;;;;;;;;5070755;28;20115;-76
2021/12/09 01:58:35;;;;;;;29.27;13.77;;;;;;;;;;5087951;28;20051;-77
2021/12/09 02:01:01;;;;;;;29.90;14.50;;;;;;;;;;5087603;28;20047;-77
2021/12/09 02:03:27;;;;;;;26.10;13.40;;;;;;;;;;5071567;28;20047;-77
2021/12/09 02:05:54;;;;;;;28.60;13.20;;;;;;;;;;5087866;28;20441;-78
2021/12/09 02:08:20;;;;;;;27.13;13.38;;;;;;;;;;5089344;28;20534;-77
2021/12/09 02:10:47;;;;;;;27.80;13.95;;;;;;;;;;5074645;28;20036;-76
2021/12/09 02:13:14;;;;;;;27.10;13.93;;;;;;;;;;5074952;28;20364;-77
2021/12/09 02:15:40;;;;;;;27.17;13.77;;;;;;;;;;5093196;28;20376;-76
2021/12/09 02:18:07;;;;;;;31.05;15.00;;;;;;;;;;5091417;28;20068;-78
2021/12/09 02:20:37;;;;;;;32.88;14.13;;;;;;;;;;5091530;28;20137;-77
2021/12/09 02:23:08;;;;;;;29.30;14.75;;;;;;;;;;5091398;28;20451;-77
2021/12/09 02:25:34;;;;;;;26.38;14.50;;;;;;;;;;5091446;28;20047;-77
2021/12/09 02:28:01;;;;;;;30.02;14.23;;;;;;;;;;5091241;28;20048;-76
2021/12/09 02:30:27;;;;;;;29.98;14.48;;;;;;;;;;5102729;28;20049;-76
2021/12/09 02:32:53;;;;;;;30.90;15.27;;;;;;;;;;5094793;28;20090;-79
2021/12/09 02:35:19;;;;;;;30.73;15.07;;;;;;;;;;5112164;28;20585;-79
2021/12/09 02:37:45;;;;;;;29.65;15.50;;;;;;;;;;5094617;28;20050;-79
2021/12/09 02:40:12;;;;;;;31.95;15.77;;;;;;;;;;5095173;28;20051;-79
2021/12/09 02:42:39;;;;;;;30.55;14.63;;;;;;;;;;5111735;28;20040;-79
2021/12/09 02:45:06;;;;;;;26.20;13.57;;;;;;;;;;5111191;28;20083;-79
2021/12/09 02:47:32;;;;;;;29.30;14.38;;;;;;;;;;5111359;28;20047;-79
2021/12/09 02:49:59;;;;;;;31.40;16.30;;;;;;;;;;5094101;28;20051;-79
2021/12/09 02:52:25;;;;;;;32.50;15.50;;;;;;;;;;5111267;28;20047;-79
2021/12/09 02:54:51;;;;;;;28.73;16.20;;;;;;;;;;5111563;28;20411;-79
2021/12/09 02:57:18;;;;;;;28.80;15.50;;;;;;;;;;5111416;28;20407;-79
2021/12/09 02:59:44;;;;;;;36.70;15.63;;;;;;;;;;5094408;28;20065;-79
2021/12/09 03:02:11;;;;;;;34.13;16.45;;;;;;;;;;5090143;28;20079;-79
2021/12/09 03:04:39;;;;;;;32.53;15.63;;;;;;;;;;5127842;27;20482;-79
2021/12/09 03:07:11;;;;;;;30.25;15.82;;;;;;;;;;5109399;28;20587;-79
2021/12/09 03:09:47;;;;;;;34.88;16.45;;;;;;;;;;5094170;28;20395;-79
2021/12/09 03:12:15;;;;;;;36.13;16.88;;;;;;;;;;5110615;28;20044;-79
2021/12/09 03:14:41;;;;;;;37.40;16.23;;;;;;;;;;5111096;28;20168;-79
2021/12/09 03:17:07;;;;;;;37.00;16.65;;;;;;;;;;5110613;28;20574;-77
2021/12/09 03:19:33;;;;;;;32.30;16.67;;;;;;;;;;5109285;28;20055;-77
2021/12/09 03:21:59;;;;;;;39.95;17.40;;;;;;;;;;5110301;28;20124;-77
2021/12/09 03:24:26;;;;;;;32.55;15.80;;;;;;;;;;5093106;28;20373;-76
2021/12/09 03:26:55;;;;;;;37.53;17.30;;;;;;;;;;5093413;28;20088;-76
2021/12/09 03:29:22;;;;;;;40.80;15.55;;;;;;;;;;5110505;28;20047;-76
2021/12/09 03:31:49;;;;;;;38.13;16.23;;;;;;;;;;5110156;28;20031;-79
2021/12/09 03:34:16;;;;;;;32.85;14.15;;;;;;;;;;5112122;28;20486;-77
2021/12/09 03:36:42;;;;;;;37.95;17.40;;;;;;;;;;5110429;28;20031;-77
2021/12/09 03:39:13;;;;;;;37.42;17.33;;;;;;;;;;5092928;28;20043;-76
2021/12/09 03:41:39;;;;;;;35.58;17.17;;;;;;;;;;5110228;28;20092;-76
2021/12/09 03:44:06;;;;;;;31.95;16.80;;;;;;;;;;5110185;28;20525;-79
2021/12/09 03:46:33;;;;;;;38.10;17.15;;;;;;;;;;5110140;28;20079;-79
2021/12/09 03:48:59;;;;;;;34.80;14.80;;;;;;;;;;5109629;28;20043;-79
2021/12/09 03:51:25;;;;;;;34.85;16.33;;;;;;;;;;5110802;28;20478;-79
2021/12/09 03:53:53;;;;;;;32.90;16.50;;;;;;;;;;5109718;28;20039;-77
2021/12/09 03:56:19;;;;;;;33.97;18.00;;;;;;;;;;5076070;28;20032;-77
2021/12/09 03:58:45;;;;;;;36.38;16.15;;;;;;;;;;5093249;28;20043;-77
2021/12/09 04:01:11;;;;;;;30.65;16.42;;;;;;;;;;5093413;28;20085;-77
2021/12/09 04:03:37;;;;;;;29.73;14.45;;;;;;;;;;5111551;28;20413;-77
2021/12/09 04:06:04;;;;;;;31.33;16.55;;;;;;;;;;5092323;28;20038;-76
2021/12/09 04:08:30;;;;;;;30.95;15.15;;;;;;;;;;5109484;28;20092;-76
2021/12/09 04:10:56;;;;;;;30.42;14.63;;;;;;;;;;5091930;28;20043;-76
2021/12/09 04:13:22;;;;;;;39.35;16.88;;;;;;;;;;5109318;28;20075;-77
2021/12/09 04:15:48;;;;;;;33.80;15.93;;;;;;;;;;5109220;28;20043;-77
2021/12/09 04:18:14;;;;;;;35.08;15.80;;;;;;;;;;5109776;28;20089;-77
2021/12/09 04:20:41;;;;;;;33.63;15.88;;;;;;;;;;5092339;28;20548;-77
2021/12/09 04:23:07;;;;;;;35.30;16.02;;;;;;;;;;5109750;28;20054;-77
2021/12/09 04:25:34;;;;;;;32.53;15.35;;;;;;;;;;5108930;28;20047;-77
2021/12/09 04:28:00;;;;;;;39.58;16.95;;;;;;;;;;5109209;28;20534;-77
2021/12/09 04:30:26;;;;;;;37.17;16.42;;;;;;;;;;5091686;28;20050;-76
2021/12/09 04:32:53;;;;;;;38.97;17.25;;;;;;;;;;5092109;28;20072;-76
2021/12/09 04:35:21;;;;;;;32.22;15.48;;;;;;;;;;5109201;28;20047;-79
2021/12/09 04:37:47;;;;;;;32.92;15.55;;;;;;;;;;5108377;28;20261;-76
2021/12/09 04:40:14;;;;;;;39.47;16.35;;;;;;;;;;5109146;28;20043;-77
2021/12/09 04:42:40;;;;;;;34.83;15.43;;;;;;;;;;5108803;28;20040;-77
2021/12/09 04:45:07;;;;;;;37.20;16.25;;;;;;;;;;5108792;28;20050;-77
2021/12/09 04:47:34;;;;;;;35.38;16.23;;;;;;;;;;5109147;28;20490;-77
2021/12/09 04:50:00;;;;;;;34.85;16.25;;;;;;;;;;5108461;28;20475;-77
2021/12/09 04:52:26;;;;;;;30.77;16.52;;;;;;;;;;5125974;27;20040;-76
2021/12/09 04:54:53;;;;;;;35.40;16.75;;;;;;;;;;5109182;28;20509;-79
2021/12/09 04:57:19;;;;;;;35.33;15.95;;;;;;;;;;5108704;28;20047;-77
2021/12/09 04:59:47;;;;;;;36.45;16.30;;;;;;;;;;5108635;28;20122;-77
2021/12/09 05:02:24;;;;;;;34.28;14.93;;;;;;;;;;5104541;28;20563;-77
2021/12/09 05:04:51;;;;;;;33.33;15.93;;;;;;;;;;5091259;28;20135;-77
2021/12/09 05:07:17;;;;;;;38.70;16.85;;;;;;;;;;5107453;28;20122;-77
2021/12/09 05:09:50;;;;;;;34.50;16.83;;;;;;;;;;5110191;28;20051;-77
2021/12/09 05:12:16;;;;;;;38.30;17.70;;;;;;;;;;5108970;28;20483;-77
2021/12/09 05:14:47;;;;;;;35.70;17.13;;;;;;;;;;5109132;28;20047;-79
2021/12/09 05:17:14;;;;;;;33.08;16.23;;;;;;;;;;5108770;28;20092;-80
2021/12/09 05:19:40;;;;;;;38.47;17.33;;;;;;;;;;5108048;28;20088;-79
2021/12/09 05:22:06;;;;;;;31.77;16.08;;;;;;;;;;5108183;28;20127;-79
2021/12/09 05:24:37;;;;;;;37.20;16.38;;;;;;;;;;5091908;28;20083;-79
2021/12/09 05:27:04;;;;;;;34.72;15.70;;;;;;;;;;5108171;28;20050;-77
2021/12/09 05:29:37;;;;;;;36.80;16.83;;;;;;;;;;5091841;28;20101;-79
2021/12/09 05:32:10;;;;;;;33.35;15.07;;;;;;;;;;5092438;28;20158;-77
2021/12/09 05:34:41;;;;;;;33.05;17.15;;;;;;;;;;5092626;28;20510;-77
2021/12/09 05:37:09;;;;;;;34.33;16.63;;;;;;;;;;5108478;28;20044;-77
2021/12/09 05:39:36;;;;;;;39.60;15.95;;;;;;;;;;5108354;28;20085;-79
2021/12/09 05:42:03;;;;;;;36.88;16.02;;;;;;;;;;5109393;28;20085;-79
2021/12/09 05:44:29;;;;;;;32.53;15.13;;;;;;;;;;5095407;28;20058;-79
2021/12/09 05:46:55;;;;;;;32.80;15.45;;;;;;;;;;5096149;28;20554;-79
2021/12/09 05:49:22;;;;;;;34.60;14.95;;;;;;;;;;5113432;28;20048;-79
2021/12/09 05:51:48;;;;;;;41.63;16.52;;;;;;;;;;5112160;28;20052;-78
2021/12/09 05:54:15;;;;;;;35.63;16.25;;;;;;;;;;5095958;28;20046;-75
2021/12/09 05:56:41;;;;;;;31.73;16.00;;;;;;;;;;5112468;28;20185;-77
2021/12/09 05:59:07;;;;;;;35.10;15.48;;;;;;;;;;5112058;28;20074;-77
2021/12/09 06:01:34;;;;;;;39.10;16.80;;;;;;;;;;5095311;28;20118;-80
2021/12/09 06:04:00;;;;;;;33.70;14.55;;;;;;;;;;5078299;28;20047;-77
2021/12/09 06:06:26;;;;;;;34.47;14.38;;;;;;;;;;5112452;28;20483;-77
2021/12/09 06:08:52;;;;;;;37.83;15.25;;;;;;;;;;5111947;28;20043;-77
2021/12/09 06:11:18;;;;;;;40.13;15.98;;;;;;;;;;5112263;28;20364;-77
2021/12/09 06:13:46;;;;;;;32.97;15.68;;;;;;;;;;5111553;28;20035;-77
2021/12/09 06:16:13;;;;;;;34.08;14.55;;;;;;;;;;5112435;28;20116;-78
2021/12/09 06:18:39;;;;;;;35.15;15.23;;;;;;;;;;5111864;28;20476;-77
2021/12/09 06:21:05;;;;;;;35.47;16.92;;;;;;;;;;5112068;28;20048;-79
2021/12/09 06:23:32;;;;;;;41.67;16.63;;;;;;;;;;5095685;28;20070;-79
2021/12/09 06:25:58;;;;;;;39.05;15.70;;;;;;;;;;5112025;28;20032;-79
2021/12/09 06:28:24;;;;;;;31.50;14.93;;;;;;;;;;5095567;28;20039;-79
2021/12/09 06:30:50;;;;;;;37.33;15.20;;;;;;;;;;5112555;28;20104;-77
2021/12/09 06:33:17;;;;;;;38.10;15.55;;;;;;;;;;5111750;28;20065;-77
2021/12/09 06:35:43;;;;;;;35.88;14.23;;;;;;;;;;5112063;28;20091;-77
2021/12/09 06:38:14;;;;;;;37.67;15.48;;;;;;;;;;5111917;28;20035;-77
2021/12/09 06:40:41;;;;;;;32.67;15.25;;;;;;;;;;5111876;28;20051;-77
2021/12/09 06:43:07;;;;;;;34.80;15.82;;;;;;;;;;5111258;28;20039;-77
2021/12/09 06:45:34;;;;;;;38.22;15.63;;;;;;;;;;5114195;28;20582;-79
2021/12/09 06:48:01;;;;;;;37.50;15.95;;;;;;;;;;5094072;28;20039;-77
2021/12/09 06:50:27;;;;;;;40.47;15.00;;;;;;;;;;5094958;28;20054;-76
2021/12/09 06:52:53;;;;;;;38.42;15.40;;;;;;;;;;5110940;28;20046;-79
2021/12/09 06:55:20;;;;;;;35.47;16.45;;;;;;;;;;5110551;28;20123;-79
2021/12/09 06:57:46;;;;;;;36.63;15.48;;;;;;;;;;5111076;28;20562;-80
2021/12/09 07:00:14;;;;;;;35.40;16.25;;;;;;;;;;5112119;28;20386;-79
2021/12/09 07:02:40;;;;;;;42.85;17.00;;;;;;;;;;5094308;28;20089;-80
2021/12/09 07:05:08;;;;;;;32.67;14.93;;;;;;;;;;5112485;28;20502;-79
2021/12/09 07:07:34;;;;;;;33.45;15.43;;;;;;;;;;5111964;28;20047;-79
2021/12/09 07:10:00;;;;;;;40.20;16.85;;;;;;;;;;5094364;28;20042;-79
2021/12/09 07:12:27;;;;;;;39.63;15.55;;;;;;;;;;5111541;28;20463;-79
2021/12/09 07:14:53;;;;;;;35.42;15.73;;;;;;;;;;5111592;28;20160;-79
2021/12/09 07:17:20;;;;;;;36.30;16.23;;;;;;;;;;5111586;28;20095;-79
2021/12/09 07:19:46;;;;;;;38.03;16.55;;;;;;;;;;5110535;28;20060;-79
2021/12/09 07:22:12;;;;;;;38.08;15.38;;;;;;;;;;5110969;28;20048;-79
2021/12/09 07:24:38;;;;;;;38.38;16.23;;;;;;;;;;5110800;28;20062;-77
2021/12/09 07:27:05;;;;;;;36.05;14.82;;;;;;;;;;5093780;28;20051;-77
2021/12/09 07:29:32;;;;;;;40.22;16.13;;;;;;;;;;5110692;28;20032;-77
2021/12/09 07:31:58;;;;;;;39.25;17.00;;;;;;;;;;5093831;28;20506;-78
2021/12/09 07:34:24;;;;;;;38.00;14.95;;;;;;;;;;5095103;28;20195;-79
2021/12/09 07:36:50;;;;;;;34.53;15.25;;;;;;;;;;5110484;28;20035;-79
2021/12/09 07:39:16;;;;;;;42.08;15.75;;;;;;;;;;5110646;28;20380;-80
2021/12/09 07:41:42;;;;;;;38.58;17.45;;;;;;;;;;5110744;28;20048;-77
2021/12/09 07:44:08;;;;;;;36.20;16.45;;;;;;;;;;5110815;28;20441;-79
2021/12/09 07:46:35;;;;;;;40.38;16.23;;;;;;;;;;5110781;28;20047;-77
2021/12/09 07:49:02;;;;;;;36.72;15.95;;;;;;;;;;5093763;28;20065;-78
2021/12/09 07:51:28;;;;;;;41.50;16.13;;;;;;;;;;5110490;28;20041;-78
2021/12/09 07:53:55;;;;;;;36.38;16.27;;;;;;;;;;5109874;28;20071;-77
2021/12/09 07:56:21;;;;;;;38.78;14.75;;;;;;;;;;5110454;28;20159;-77
2021/12/09 07:58:47;;;;;;;38.10;16.52;;;;;;;;;;5110087;28;20499;-77
2021/12/09 08:01:13;;;;;;;40.10;17.63;;;;;;;;;;5093488;28;20122;-78
2021/12/09 08:03:39;;;;;;;46.05;16.80;;;;;;;;;;5111280;28;20044;-78
2021/12/09 08:06:05;;;;;;;33.67;16.20;;;;;;;;;;5092092;28;20372;-77
2021/12/09 08:08:31;;;;;;;35.60;15.85;;;;;;;;;;5109683;28;20042;-77
2021/12/09 08:10:57;;;;;;;39.13;16.35;;;;;;;;;;5092972;28;20553;-77
2021/12/09 08:13:23;;;;;;;34.05;15.07;;;;;;;;;;5110010;28;20084;-77
2021/12/09 08:15:53;;;;;;;36.55;16.25;;;;;;;;;;5109446;28;20050;-77
2021/12/09 08:20:45;;;;;;;29.83;14.05;;;;;;;;;;5109865;28;20047;-80
2021/12/09 08:23:11;;;;;;;29.50;14.40;;;;;;;;;;5109432;28;20051;-77
2021/12/09 08:25:37;;;;;;;26.98;12.02;;;;;;;;;;5092862;28;20391;-77
2021/12/09 08:28:04;;;;;;;25.33;12.30;;;;;;;;;;5092143;28;20161;-78
2021/12/09 08:30:30;;;;;;;19.73;10.27;;;;;;;;;;5109358;28;20047;-77
2021/12/09 08:32:56;;;;;;;19.13;10.02;;;;;;;;;;5109766;28;20031;-80
2021/12/09 08:35:22;;;;;;;20.00;9.00;;;;;;;;;;5109736;28;20099;-81
2021/12/09 08:37:50;;;;;;;16.63;9.30;;;;;;;;;;5109224;28;20479;-78
2021/12/09 08:40:17;;;;;;;19.02;8.35;;;;;;;;;;5092674;28;20056;-77
2021/12/09 08:42:43;;;;;;;16.13;7.78;;;;;;;;;;5092607;28;20572;-76
2021/12/09 08:45:10;;;;;;;17.90;7.75;;;;;;;;;;5091858;28;20130;-80
2021/12/09 08:47:37;;;;;;;13.95;7.38;;;;;;;;;;5091990;28;20043;-80
2021/12/09 08:50:05;;;;;;;15.77;8.18;;;;;;;;;;5108628;28;20048;-81
2021/12/09 08:52:31;;;;;;;15.30;6.82;;;;;;;;;;5092033;28;20495;-80
2021/12/09 08:54:57;;;;;;;13.70;6.43;;;;;;;;;;5108642;28;20035;-80
2021/12/09 08:57:23;;;;;;;12.75;6.40;;;;;;;;;;5092989;28;20031;-81
2021/12/09 08:59:49;;;;;;;17.02;6.40;;;;;;;;;;5091709;28;20043;-80
2021/12/09 09:02:16;;;;;;;14.63;6.22;;;;;;;;;;5091772;28;20043;-81
2021/12/09 09:04:42;;;;;;;11.60;5.75;;;;;;;;;;5109844;28;20407;-81
2021/12/09 09:07:08;;;;;;;14.85;5.65;;;;;;;;;;5108639;28;20040;-77
2021/12/09 09:09:37;;;;;;;13.70;5.60;;;;;;;;;;5092210;28;20047;-77
2021/12/09 09:12:05;;;;;;;14.45;5.82;;;;;;;;;;5108623;28;20046;-77
2021/12/09 09:14:31;;;;;;;12.38;5.50;;;;;;;;;;5109086;28;20051;-77
2021/12/09 09:16:57;;;;;;;11.77;5.40;;;;;;;;;;5108110;28;20046;-77
2021/12/09 09:19:23;;;;;;;11.10;5.63;;;;;;;;;;5107943;28;20108;-77
2021/12/09 09:21:50;;;;;;;11.23;5.40;;;;;;;;;;5108441;28;20070;-78
2021/12/09 09:24:16;;;;;;;13.93;5.80;;;;;;;;;;5108655;28;20036;-78
2021/12/09 09:26:42;;;;;;;8.45;4.70;;;;;;;;;;5092077;28;20483;-82
2021/12/09 09:29:08;;;;;;;12.75;5.97;;;;;;;;;;5107727;28;20043;-82
2021/12/09 09:31:35;;;;;;;10.35;4.72;;;;;;;;;;5108392;28;20035;-82
2021/12/09 09:34:03;;;;;;;10.32;5.25;;;;;;;;;;5108682;28;20047;-81
2021/12/09 09:36:29;;;;;;;9.63;5.03;;;;;;;;;;5092066;28;20044;-82
2021/12/09 09:39:00;;;;;;;12.48;5.18;;;;;;;;;;5109054;28;20050;-82
2021/12/09 09:41:32;;;;;;;13.55;5.28;;;;;;;;;;5109316;28;20043;-78
2021/12/09 09:44:10;;;;;;;10.80;4.93;;;;;;;;;;5090974;28;20035;-78
2021/12/09 09:46:36;;;;;;;12.30;5.32;;;;;;;;;;5093080;28;20043;-76
2021/12/09 09:49:03;;;;;;;10.68;5.50;;;;;;;;;;5107504;28;20044;-77
2021/12/09 09:51:30;;;;;;;11.52;5.35;;;;;;;;;;5108083;28;20502;-75
2021/12/09 09:53:57;;;;;;;15.60;5.88;;;;;;;;;;5108005;28;20077;-76
2021/12/09 09:56:24;;;;;;;12.60;5.70;;;;;;;;;;5108339;28;20036;-81
2021/12/09 09:58:58;;;;;;;12.63;5.90;;;;;;;;;;5108635;28;20092;-76
2021/12/09 10:01:24;;;;;;;14.10;5.90;;;;;;;;;;5108038;28;20070;-75
2021/12/09 10:03:58;;;;;;;12.35;5.15;;;;;;;;;;5108085;28;20047;-76
2021/12/09 10:06:24;;;;;;;16.15;6.25;;;;;;;;;;5108076;28;20039;-76
2021/12/09 10:08:50;;;;;;;13.13;6.18;;;;;;;;;;5108647;28;20467;-75
2021/12/09 10:11:17;;;;;;;13.80;5.95;;;;;;;;;;5091126;28;20075;-76
2021/12/09 10:13:44;;;;;;;16.63;6.47;;;;;;;;;;5091593;28;20491;-76
2021/12/09 10:16:21;;;;;;;14.00;6.15;;;;;;;;;;5090896;28;20051;-75
2021/12/09 10:18:48;;;;;;;13.10;6.53;;;;;;;;;;5091493;28;20506;-81
2021/12/09 10:21:24;;;;;;;21.33;6.63;;;;;;;;;;5107438;28;20487;-75
2021/12/09 10:24:04;;;;;;;14.50;7.35;;;;;;;;;;5108115;28;20043;-76
2021/12/09 10:26:31;;;;;;;15.77;7.38;;;;;;;;;;5108130;28;20047;-75
2021/12/09 10:29:03;;;;;;;14.80;6.70;;;;;;;;;;5091349;28;20044;-75
2021/12/09 10:31:33;;;;;;;15.60;7.20;;;;;;;;;;5094403;28;20058;-75
2021/12/09 10:34:11;;;;;;;16.15;7.03;;;;;;;;;;5111641;28;20047;-75
2021/12/09 10:36:42;;;;;;;12.82;6.47;;;;;;;;;;5112263;28;20092;-75
2021/12/09 10:39:13;;;;;;;18.15;7.78;;;;;;;;;;5111171;28;20083;-75
2021/12/09 10:41:39;;;;;;;17.92;7.72;;;;;;;;;;5111996;28;20083;-75
2021/12/09 10:44:06;;;;;;;17.17;7.80;;;;;;;;;;5128874;27;20661;-75
2021/12/09 10:46:52;;;;;;;16.73;7.15;;;;;;;;;;5111820;28;20036;-76
2021/12/09 10:49:19;;;;;;;18.85;7.68;;;;;;;;;;5112342;28;20530;-81
2021/12/09 10:51:56;;;;;;;16.73;7.85;;;;;;;;;;5094561;28;20050;-75
2021/12/09 10:54:36;;;;;;;18.35;7.97;;;;;;;;;;5111632;28;20046;-76
2021/12/09 10:57:21;;;;;;;24.52;9.40;;;;;;;;;;5111526;28;20069;-76
2021/12/09 10:59:47;;;;;;;18.33;8.40;;;;;;;;;;5111634;28;20036;-76
2021/12/09 11:02:13;;;;;;;22.20;9.50;;;;;;;;;;5111133;28;20039;-76
2021/12/09 11:04:39;;;;;;;24.08;9.75;;;;;;;;;;5111060;28;20442;-75
2021/12/09 11:07:27;;;;;;;20.25;9.13;;;;;;;;;;5094087;28;20120;-75
2021/12/09 11:10:13;;;;;;;20.48;9.38;;;;;;;;;;5111969;28;20054;-75
2021/12/09 11:12:39;;;;;;;23.00;10.07;;;;;;;;;;5111287;28;20047;-76
2021/12/09 11:15:05;;;;;;;24.45;10.75;;;;;;;;;;5093917;28;20085;-76
2021/12/09 11:17:36;;;;;;;25.58;10.93;;;;;;;;;;5111160;28;20084;-78
2021/12/09 11:20:04;;;;;;;29.52;12.55;;;;;;;;;;5111603;28;20136;-80
2021/12/09 11:22:31;;;;;;;26.70;11.88;;;;;;;;;;5110849;28;20130;-80
2021/12/09 11:25:02;;;;;;;32.08;13.13;;;;;;;;;;5110947;28;20039;-81
2021/12/09 11:27:29;;;;;;;29.60;12.77;;;;;;;;;;5111967;28;20130;-79
2021/12/09 11:30:07;;;;;;;37.08;13.15;;;;;;;;;;5095061;28;20064;-79
2021/12/09 11:32:50;;;;;;;33.78;13.80;;;;;;;;;;5112429;28;20046;-80
2021/12/09 11:35:21;;;;;;;34.70;13.13;;;;;;;;;;5110635;28;20529;-75
2021/12/09 11:38:02;;;;;;;33.53;13.30;;;;;;;;;;5111204;28;20039;-80
2021/12/09 11:40:36;;;;;;;28.23;13.05;;;;;;;;;;5109732;28;20078;-80
2021/12/09 11:43:03;;;;;;;35.40;14.05;;;;;;;;;;5111276;28;20043;-80
2021/12/09 11:45:31;;;;;;;30.63;13.63;;;;;;;;;;5110711;28;20062;-80
2021/12/09 11:47:58;;;;;;;37.40;14.50;;;;;;;;;;5110427;28;20479;-80
2021/12/09 11:50:26;;;;;;;32.38;13.68;;;;;;;;;;5109789;28;20050;-76
2021/12/09 11:52:53;;;;;;;33.75;13.80;;;;;;;;;;5093515;28;20390;-80
2021/12/09 11:55:25;;;;;;;29.17;13.60;;;;;;;;;;5110400;28;20475;-81
2021/12/09 11:58:14;;;;;;;33.15;14.52;;;;;;;;;;5110487;28;20101;-79
2021/12/09 12:11:55;;;;;;;32.85;14.50;;;;;;;;;;5096018;28;20079;-76
2021/12/09 12:14:35;;;;;;;33.50;15.52;;;;;;;;;;5110579;28;20440;-76
2021/12/09 12:17:16;;;;;;;32.10;13.52;;;;;;;;;;5109851;28;20395;-76
2021/12/09 12:19:52;;;;;;;32.70;14.55;;;;;;;;;;5092708;28;20487;-76
2021/12/09 12:22:47;;;;;;;35.00;14.80;;;;;;;;;;5092075;28;20039;-76
2021/12/09 12:25:36;;;;;;;42.92;15.02;;;;;;;;;;5092727;28;20112;-76
2021/12/09 12:28:39;;;;;;;29.20;13.77;;;;;;;;;;5109412;28;20048;-77
2021/12/09 12:34:12;;;;;;;27.33;12.73;;;;;;;;;;5109586;28;20039;-77
2021/12/09 12:39:34;;;;;;;32.80;14.60;;;;;;;;;;5109617;28;20166;-76
2021/12/09 12:42:05;;;;;;;34.47;13.88;;;;;;;;;;5108842;28;20058;-76
2021/12/09 12:44:32;;;;;;;33.30;14.40;;;;;;;;;;5109618;28;20047;-80
2021/12/09 12:47:12;;;;;;;33.22;14.20;;;;;;;;;;5108967;28;20039;-80
2021/12/09 12:49:45;;;;;;;35.28;14.15;;;;;;;;;;5109015;28;20126;-80
2021/12/09 12:52:15;;;;;;;35.05;15.13;;;;;;;;;;5108539;28;20047;-79
2021/12/09 12:54:49;;;;;;;29.60;14.05;;;;;;;;;;5109714;28;20047;-80
2021/12/09 12:57:27;;;;;;;31.50;14.20;;;;;;;;;;5091947;28;20075;-76
2021/12/09 13:00:09;;;;;;;38.53;13.68;;;;;;;;;;5108623;28;20047;-80
2021/12/09 13:05:39;;;;;;;34.28;14.75;;;;;;;;;;5108832;28;20047;-80
2021/12/09 13:08:25;;;;;;;30.63;14.48;;;;;;;;;;5108817;28;20047;-80
2021/12/09 13:19:30;;;;;;;29.60;13.20;;;;;;;;;;5091205;28;20046;-80
2021/12/09 13:21:59;;;;;;;27.33;12.50;;;;;;;;;;5109377;28;20079;-81
2021/12/09 13:24:29;;;;;;;28.83;11.60;;;;;;;;;;5108808;28;20095;-77
2021/12/09 13:32:51;;;;;;;28.27;12.27;;;;;;;;;;5108528;28;20044;-80
2021/12/09 13:35:29;;;;;;;27.88;11.95;;;;;;;;;;5109447;28;20050;-80
2021/12/09 13:38:17;;;;;;;25.58;10.95;;;;;;;;;;5108448;28;20043;-80
2021/12/09 13:49:08;;;;;;;29.15;12.48;;;;;;;;;;5108873;28;20052;-77
2021/12/09 13:54:25;;;;;;;31.33;12.30;;;;;;;;;;5108029;28;20043;-80
2021/12/09 13:56:55;;;;;;;27.67;12.68;;;;;;;;;;5109647;28;20043;-80
2021/12/09 13:59:22;;;;;;;28.83;12.68;;;;;;;;;;5109032;28;20483;-80
2021/12/09 14:01:49;;;;;;;26.63;12.07;;;;;;;;;;5108639;28;20054;-79
2021/12/09 14:04:19;;;;;;;24.17;11.65;;;;;;;;;;5109715;28;20529;-79
2021/12/09 14:06:49;;;;;;;27.60;12.32;;;;;;;;;;5096012;28;20542;-80
2021/12/09 14:09:15;;;;;;;26.95;13.30;;;;;;;;;;5113649;28;20174;-80
2021/12/09 14:11:47;;;;;;;26.52;12.65;;;;;;;;;;5112783;28;20051;-80
2021/12/09 14:14:18;;;;;;;28.38;12.55;;;;;;;;;;5113705;28;20050;-77
2021/12/09 14:16:53;;;;;;;25.08;11.98;;;;;;;;;;5114253;28;20048;-79
2021/12/09 14:21:48;;;;;;;26.30;12.52;;;;;;;;;;5111867;28;20047;-77
2021/12/09 14:24:23;;;;;;;34.70;12.75;;;;;;;;;;5094630;28;20045;-76
2021/12/09 14:26:57;;;;;;;32.95;12.48;;;;;;;;;;5112213;28;20060;-77
2021/12/09 14:29:24;;;;;;;29.02;12.05;;;;;;;;;;5112528;28;20474;-75
2021/12/09 14:31:51;;;;;;;20.83;11.25;;;;;;;;;;5113219;28;20104;-76
2021/12/09 14:34:18;;;;;;;26.13;12.13;;;;;;;;;;5112136;28;20112;-77
2021/12/09 14:36:45;;;;;;;27.50;12.60;;;;;;;;;;5112120;28;20077;-76
2021/12/09 14:39:14;;;;;;;28.35;13.40;;;;;;;;;;5112317;28;20050;-76
2021/12/09 14:41:40;;;;;;;31.15;13.38;;;;;;;;;;5113885;28;20487;-77
2021/12/09 14:44:09;;;;;;;26.98;12.55;;;;;;;;;;5095104;28;20052;-76
2021/12/09 14:46:39;;;;;;;27.92;12.43;;;;;;;;;;5112476;28;20047;-76
2021/12/09 14:49:16;;;;;;;24.80;11.63;;;;;;;;;;5112607;28;20044;-77
2021/12/09 14:51:43;;;;;;;30.70;13.15;;;;;;;;;;5111559;28;20031;-76
2021/12/09 14:54:10;;;;;;;29.10;12.23;;;;;;;;;;5111794;28;20101;-77
2021/12/09 14:56:48;;;;;;;24.42;11.45;;;;;;;;;;5112045;28;20523;-76
2021/12/09 14:59:14;;;;;;;31.42;12.45;;;;;;;;;;5112528;28;20043;-77
2021/12/09 15:01:41;;;;;;;27.42;12.40;;;;;;;;;;5113047;28;20084;-77
2021/12/09 15:04:14;;;;;;;25.27;12.02;;;;;;;;;;5111121;28;20042;-77
2021/12/09 15:06:44;;;;;;;29.40;12.57;;;;;;;;;;5111318;28;20040;-80
2021/12/09 15:09:15;;;;;;;25.73;12.13;;;;;;;;;;5112252;28;20044;-80
2021/12/09 15:11:43;;;;;;;25.52;12.52;;;;;;;;;;5112111;28;20547;-80
2021/12/09 15:14:17;;;;;;;28.77;12.30;;;;;;;;;;5113121;28;20265;-80
2021/12/09 15:16:43;;;;;;;30.42;13.05;;;;;;;;;;5112229;28;20043;-76
2021/12/09 15:19:20;;;;;;;28.98;12.82;;;;;;;;;;5110640;28;20075;-76
2021/12/09 15:22:10;;;;;;;26.88;12.60;;;;;;;;;;5111446;28;20181;-76